Strona główna
METAR-TAF:

METAR-TAF

Lotnisko :

Port lotniczy Lublin

Lublin, Polska

Szerokość geograficzna: 51-13-55N, Długość geograficzna: 22-41-25E, wysokość: 203 m

Aktualna obserwacja pogody

Raport powstał 23 minut temu, godzina 13:30 UTC
Wiatr 11 kt od zachodnio-północny zachód
Temperatura 10°C
Wilgotność 66%
Ciśnienie 1030 hPa
Widzialność 10 km lub więcej
Rozproszone chmury na wysokości 3000 ft
Przerywane chmury na wysokości 4200 ft

METAR: EPLB 211330Z 30011KT 9999 SCT030 BKN042 10/04 Q1030

czas: 14:53 (13:53 UTC)

Prognoza

Raport powstał 2 godziny i 23 minut temu, godzina 11:30 UTC
Prognoza ważna od 21 godzina 12 UTC do 21 godzina 21 UTC
Wiatr 10 kt od zachód
Widzialność 10 km lub więcej
Rozproszone chmury na wysokości 1800 ft
Przerywane chmury na wysokości 4000 ft

TAF: EPLB 211130Z 2112/2121 28010KT 9999 SCT018 BKN040

Obserwacja i prognoza pogody dla ponad 4000 lotnisk (raport METAR i TAF).

Dostępne stacje oznaczono żółtymi i czerwonymi punktami na mapie.

Najedź kursorem aby zobaczyć nazwę stacji.

Kliknij aby zobaczyć obserwacje i prognozy pogody.

Aby zmienić mapę: kliknij na zielony przycisk z czarnym krzyżykiem, aby powiększyć; na zielony przycisk z myślnikiem, aby pomniejszyć; na zielone strzałki, aby przejść do map sąsiednich.


METAR-TAF: